createdAt,value
2023-04-16T00:03:56.589Z,18.91
2023-04-16T00:09:18.712Z,18.88
2023-04-16T00:14:40.574Z,18.87
2023-04-16T00:20:02.716Z,18.86
2023-04-16T00:25:24.532Z,18.84
2023-04-16T00:30:46.389Z,18.83
2023-04-16T00:36:08.243Z,18.82
2023-04-16T00:41:30.129Z,18.82
2023-04-16T00:46:52.081Z,18.80
2023-04-16T00:52:13.937Z,18.79
2023-04-16T00:57:35.796Z,18.76
2023-04-16T01:02:57.712Z,18.75
2023-04-16T01:08:21.737Z,18.73
2023-04-16T01:13:43.639Z,18.72
2023-04-16T01:19:05.675Z,18.71
2023-04-16T01:24:27.558Z,18.70
2023-04-16T01:29:49.519Z,18.68
2023-04-16T01:35:11.286Z,18.68
2023-04-16T01:40:33.089Z,18.66
2023-04-16T01:46:11.449Z,18.65
2023-04-16T01:51:33.674Z,18.63
2023-04-16T01:56:55.882Z,18.60
2023-04-16T02:02:18.243Z,18.59
2023-04-16T02:07:40.354Z,18.59
2023-04-16T02:13:02.301Z,18.58
2023-04-16T02:18:24.147Z,18.57
2023-04-16T02:23:48.148Z,18.56
2023-04-16T02:29:10.094Z,18.55
2023-04-16T02:34:33.970Z,18.55
2023-04-16T02:39:56.124Z,18.54
2023-04-16T02:45:18.152Z,18.53
2023-04-16T02:50:40.199Z,18.51
2023-04-16T02:56:02.204Z,18.51
2023-04-16T03:01:24.068Z,18.49
2023-04-16T03:06:45.902Z,18.49
2023-04-16T03:12:07.690Z,18.48
2023-04-16T03:17:29.599Z,18.47
2023-04-16T03:22:52.508Z,18.46
2023-04-16T03:28:15.059Z,18.44
2023-04-16T03:33:37.360Z,18.43
2023-04-16T03:38:59.718Z,18.42
2023-04-16T03:44:21.638Z,18.41
2023-04-16T03:49:43.649Z,18.40
2023-04-16T03:55:06.046Z,18.36
2023-04-16T04:00:28.948Z,18.36
2023-04-16T04:05:51.021Z,18.34
2023-04-16T04:11:12.791Z,18.31
2023-04-16T04:16:35.038Z,18.31
2023-04-16T04:21:56.920Z,18.29
2023-04-16T04:27:18.709Z,18.27
2023-04-16T04:32:40.785Z,18.27
2023-04-16T04:38:03.316Z,18.26
2023-04-16T04:43:25.276Z,18.24
2023-04-16T04:48:47.121Z,18.22
2023-04-16T04:54:08.966Z,18.22
2023-04-16T04:59:31.032Z,18.20
2023-04-16T05:04:52.804Z,18.19
2023-04-16T05:10:14.928Z,18.19
2023-04-16T05:15:36.866Z,18.18
2023-04-16T05:20:58.774Z,18.17
2023-04-16T05:26:21.032Z,18.15
2023-04-16T05:31:42.934Z,18.14
2023-04-16T05:37:04.739Z,18.14
2023-04-16T05:42:26.560Z,18.16
2023-04-16T05:47:48.376Z,18.21
2023-04-16T05:53:10.259Z,18.52
2023-04-16T05:58:32.147Z,18.86
2023-04-16T06:03:54.155Z,19.15
2023-04-16T06:09:16.182Z,19.30
2023-04-16T06:14:37.942Z,19.38
2023-04-16T06:20:00.231Z,19.41
2023-04-16T06:25:21.984Z,19.37
2023-04-16T06:30:44.727Z,19.32
2023-04-16T06:36:06.910Z,19.24
2023-04-16T06:41:28.987Z,19.18
2023-04-16T06:46:51.351Z,19.11
2023-04-16T06:52:13.364Z,19.04
2023-04-16T06:57:36.933Z,18.98
2023-04-16T07:03:01.580Z,18.90
2023-04-16T07:08:23.650Z,18.84
2023-04-16T07:13:45.415Z,18.76
2023-04-16T07:19:07.334Z,18.70
2023-04-16T07:24:29.172Z,18.65
2023-04-16T07:29:51.140Z,18.62
2023-04-16T07:35:13.131Z,18.63
2023-04-16T07:40:35.793Z,18.64
2023-04-16T07:45:57.627Z,18.69
2023-04-16T07:51:19.645Z,18.76
2023-04-16T07:56:41.465Z,18.84
2023-04-16T08:02:05.045Z,18.94
2023-04-16T08:07:27.026Z,19.01
2023-04-16T08:12:48.943Z,19.08
2023-04-16T08:18:15.805Z,19.16
2023-04-16T08:23:37.658Z,19.20
2023-04-16T08:28:59.402Z,19.25
2023-04-16T08:34:21.316Z,19.26
2023-04-16T08:39:43.099Z,19.25
2023-04-16T08:45:17.776Z,19.28
2023-04-16T08:50:41.419Z,19.27
2023-04-16T08:56:08.883Z,19.24
2023-04-16T09:01:30.984Z,19.25
2023-04-16T09:06:54.109Z,19.51
2023-04-16T09:12:16.053Z,19.77
2023-04-16T09:17:38.359Z,19.97
2023-04-16T09:23:00.155Z,20.15
2023-04-16T09:28:41.147Z,20.27
2023-04-16T09:34:08.369Z,20.27
2023-04-16T09:39:30.152Z,20.22
2023-04-16T09:44:52.718Z,20.15
2023-04-16T09:50:18.108Z,20.09
2023-04-16T09:55:40.578Z,19.99
2023-04-16T10:01:03.479Z,19.85
2023-04-16T10:06:27.892Z,19.78
2023-04-16T10:11:50.071Z,19.76
2023-04-16T10:17:12.250Z,19.76
2023-04-16T10:22:34.934Z,19.76
2023-04-16T10:27:57.667Z,19.79
2023-04-16T10:33:24.352Z,19.86
2023-04-16T10:38:52.908Z,20.16
2023-04-16T10:44:17.992Z,20.47
2023-04-16T10:49:40.945Z,20.79
2023-04-16T10:55:02.738Z,21.09
2023-04-16T11:00:24.575Z,21.33
2023-04-16T11:05:49.415Z,21.55
2023-04-16T11:11:11.252Z,21.71
2023-04-16T11:16:33.372Z,21.85
2023-04-16T11:21:56.150Z,21.95
2023-04-16T11:27:17.921Z,22.00
2023-04-16T11:32:40.210Z,21.97
2023-04-16T11:38:06.785Z,21.92
2023-04-16T11:43:28.646Z,21.86
2023-04-16T11:48:54.171Z,21.79
2023-04-16T11:54:22.686Z,21.71
2023-04-16T12:00:01.473Z,21.57
2023-04-16T12:05:35.297Z,21.48
2023-04-16T12:10:58.307Z,21.39
2023-04-16T12:16:21.318Z,21.29
2023-04-16T12:21:45.165Z,21.17
2023-04-16T12:27:07.236Z,21.05
2023-04-16T12:32:29.059Z,20.95
2023-04-16T12:37:50.954Z,20.86
2023-04-16T12:43:13.368Z,20.79
2023-04-16T12:48:35.649Z,20.70
2023-04-16T12:53:57.716Z,20.60
2023-04-16T12:59:19.478Z,20.50
2023-04-16T13:04:41.352Z,20.39
2023-04-16T13:10:03.289Z,20.31
2023-04-16T13:15:25.092Z,20.23
2023-04-16T13:20:46.939Z,20.14
2023-04-16T13:26:08.761Z,20.06
2023-04-16T13:31:30.989Z,19.98
2023-04-16T13:36:52.809Z,19.93
2023-04-16T13:42:14.697Z,19.88
2023-04-16T13:47:37.081Z,19.81
2023-04-16T13:52:58.976Z,19.76
2023-04-16T13:58:21.167Z,19.69
2023-04-16T14:03:43.041Z,19.64
2023-04-16T14:09:04.905Z,19.59
2023-04-16T14:14:26.924Z,19.53
2023-04-16T14:19:48.961Z,19.49
2023-04-16T14:25:10.741Z,19.52
2023-04-16T14:30:32.672Z,19.62
2023-04-16T14:35:55.150Z,19.78
2023-04-16T14:41:17.106Z,19.91
2023-04-16T14:46:38.910Z,20.02
2023-04-16T14:52:02.830Z,20.09
2023-04-16T14:57:24.884Z,20.17
2023-04-16T15:02:48.536Z,20.19
2023-04-16T15:08:10.518Z,20.21
2023-04-16T15:13:34.315Z,20.18
2023-04-16T15:18:56.101Z,20.12
2023-04-16T15:24:18.034Z,20.06
2023-04-16T15:29:39.828Z,20.16
2023-04-16T15:35:03.511Z,20.31
2023-04-16T15:40:25.540Z,20.47
2023-04-16T15:45:47.367Z,20.60
2023-04-16T15:51:09.485Z,20.66
2023-04-16T15:56:31.821Z,20.67
2023-04-16T16:01:53.819Z,20.63
2023-04-16T16:07:19.998Z,20.55
2023-04-16T16:12:42.001Z,20.47
2023-04-16T16:18:03.962Z,20.36
2023-04-16T16:23:26.275Z,20.31
2023-04-16T16:28:48.287Z,20.30
2023-04-16T16:34:17.071Z,20.32
2023-04-16T16:39:42.114Z,20.31
2023-04-16T16:45:06.387Z,20.31
2023-04-16T16:50:28.394Z,20.28
2023-04-16T16:55:50.378Z,20.22
2023-04-16T17:01:12.305Z,20.17
2023-04-16T17:06:34.322Z,20.11
2023-04-16T17:11:57.155Z,20.09
2023-04-16T17:17:19.260Z,20.20
2023-04-16T17:22:41.345Z,20.31
2023-04-16T17:28:03.456Z,20.37
2023-04-16T17:33:25.341Z,20.47
2023-04-16T17:38:47.155Z,20.70
2023-04-16T17:44:11.589Z,20.97
2023-04-16T17:49:33.749Z,21.13
2023-04-16T17:55:00.719Z,21.22
2023-04-16T18:00:22.604Z,21.26
2023-04-16T18:05:47.414Z,21.25
2023-04-16T18:11:09.430Z,21.22
2023-04-16T18:16:31.592Z,21.20
2023-04-16T18:21:53.354Z,21.17
2023-04-16T18:27:15.322Z,21.13
2023-04-16T18:32:39.658Z,21.09
2023-04-16T18:38:11.659Z,21.12
2023-04-16T18:43:33.489Z,21.33
2023-04-16T18:48:55.388Z,21.54
2023-04-16T18:54:17.234Z,21.74
2023-04-16T18:59:39.027Z,22.01
2023-04-16T19:05:01.312Z,22.23
2023-04-16T19:10:23.106Z,22.43
2023-04-16T19:15:44.992Z,22.56
2023-04-16T19:21:07.453Z,22.70
2023-04-16T19:26:29.444Z,22.83
2023-04-16T19:31:51.584Z,22.92
2023-04-16T19:37:13.564Z,22.97
2023-04-16T19:42:35.687Z,23.00
2023-04-16T19:47:57.562Z,22.99
2023-04-16T19:53:19.352Z,22.91
2023-04-16T19:58:41.176Z,22.80
2023-04-16T20:04:03.120Z,22.70
2023-04-16T20:09:25.607Z,22.59
2023-04-16T20:14:47.724Z,22.47
2023-04-16T20:20:11.247Z,22.31
2023-04-16T20:25:33.076Z,22.19
2023-04-16T20:30:55.135Z,22.05
2023-04-16T20:36:16.912Z,21.93
2023-04-16T20:41:44.038Z,21.80
2023-04-16T20:47:13.261Z,21.70
2023-04-16T20:52:35.059Z,21.58
2023-04-16T20:57:56.913Z,21.49
2023-04-16T21:03:19.964Z,21.40
2023-04-16T21:08:41.780Z,21.30
2023-04-16T21:14:03.931Z,21.19
2023-04-16T21:19:25.794Z,21.11
2023-04-16T21:24:47.574Z,21.02
2023-04-16T21:30:09.884Z,20.96
2023-04-16T21:35:33.366Z,20.85
2023-04-16T21:40:56.044Z,20.79
2023-04-16T21:46:17.945Z,20.72
2023-04-16T21:51:40.686Z,20.64
2023-04-16T21:57:02.846Z,20.59
2023-04-16T22:02:24.897Z,20.52
2023-04-16T22:07:47.020Z,20.47
2023-04-16T22:13:12.897Z,20.41
2023-04-16T22:18:34.712Z,20.38
2023-04-16T22:23:56.499Z,20.33
2023-04-16T22:29:18.343Z,20.28
2023-04-16T22:34:40.214Z,20.23
2023-04-16T22:40:02.181Z,20.19
2023-04-16T22:45:24.030Z,20.16
2023-04-16T22:50:48.793Z,20.13
2023-04-16T22:56:11.049Z,20.09
2023-04-16T23:01:34.397Z,20.05
2023-04-16T23:06:56.505Z,20.03
2023-04-16T23:12:18.348Z,19.99
2023-04-16T23:17:40.430Z,19.95
2023-04-16T23:23:02.205Z,19.92
2023-04-16T23:28:23.946Z,19.89
2023-04-16T23:33:45.729Z,19.86
2023-04-16T23:39:07.510Z,19.83
2023-04-16T23:44:29.286Z,19.81
2023-04-16T23:49:51.032Z,19.79
2023-04-16T23:55:13.139Z,19.76
